createdAt,value
2019-05-21T00:01:21.654Z,29.77
2019-05-21T00:03:51.153Z,22.10
2019-05-21T00:06:20.529Z,20.72
2019-05-21T00:08:49.922Z,18.73
2019-05-21T00:11:19.420Z,14.87
2019-05-21T00:13:50.431Z,21.23
2019-05-21T00:16:19.821Z,18.15
2019-05-21T00:18:49.259Z,21.20
2019-05-21T00:21:18.625Z,17.90
2019-05-21T00:23:48.323Z,15.98
2019-05-21T00:26:17.786Z,17.40
2019-05-21T00:29:23.997Z,18.02
2019-05-21T00:32:29.678Z,15.53
2019-05-21T00:35:49.242Z,19.12
2019-05-21T00:38:54.893Z,19.92
2019-05-21T00:42:09.319Z,18.40
2019-05-21T00:44:43.112Z,13.62
2019-05-21T00:47:13.572Z,19.43
2019-05-21T00:49:42.985Z,14.05
2019-05-21T00:52:12.414Z,12.27
2019-05-21T00:54:41.954Z,15.10
2019-05-21T00:57:13.162Z,20.03
2019-05-21T00:59:42.583Z,13.77
2019-05-21T01:02:12.085Z,12.37
2019-05-21T01:04:41.512Z,15.00
2019-05-21T01:07:10.952Z,18.08
2019-05-21T01:09:40.303Z,16.60
2019-05-21T01:12:09.713Z,20.20
2019-05-21T01:14:39.189Z,18.05
2019-05-21T01:17:09.643Z,13.60
2019-05-21T01:19:39.120Z,15.23
2019-05-21T01:22:08.546Z,13.60
2019-05-21T01:24:37.944Z,12.10
2019-05-21T01:27:07.279Z,15.75
2019-05-21T01:29:36.715Z,11.00
2019-05-21T01:32:08.989Z,11.75
2019-05-21T01:34:38.445Z,15.63
2019-05-21T01:37:07.817Z,15.68
2019-05-21T01:39:37.188Z,11.25
2019-05-21T01:42:07.579Z,13.70
2019-05-21T01:44:37.066Z,11.45
2019-05-21T01:47:06.437Z,12.58
2019-05-21T01:49:35.867Z,14.07
2019-05-21T01:52:05.287Z,15.13
2019-05-21T01:54:34.711Z,11.17
2019-05-21T01:57:04.565Z,13.13
2019-05-21T01:59:36.663Z,15.75
2019-05-21T02:02:06.028Z,16.70
2019-05-21T02:04:35.412Z,12.50
2019-05-21T02:07:05.815Z,14.63
2019-05-21T02:09:36.943Z,11.68
2019-05-21T02:12:06.469Z,18.20
2019-05-21T02:14:35.970Z,13.43
2019-05-21T02:17:05.437Z,16.85
2019-05-21T02:19:34.864Z,16.42
2019-05-21T02:22:04.325Z,10.43
2019-05-21T02:24:33.691Z,16.55
2019-05-21T02:27:06.086Z,21.73
2019-05-21T02:29:35.503Z,14.83
2019-05-21T02:32:05.396Z,19.85
2019-05-21T02:34:36.421Z,20.13
2019-05-21T02:37:06.557Z,14.70
2019-05-21T02:39:36.070Z,13.62
2019-05-21T02:42:05.899Z,13.32
2019-05-21T02:44:35.293Z,10.32
2019-05-21T02:47:04.729Z,12.18
2019-05-21T02:49:34.201Z,12.28
2019-05-21T02:52:03.703Z,12.20
2019-05-21T02:54:41.124Z,8.38
2019-05-21T02:59:36.118Z,11.40
2019-05-21T03:02:07.266Z,12.07
2019-05-21T03:04:36.706Z,8.53
2019-05-21T03:07:18.520Z,9.95
2019-05-21T03:09:52.552Z,8.00
2019-05-21T03:12:21.999Z,9.65
2019-05-21T03:14:51.347Z,8.03
2019-05-21T03:17:20.849Z,10.17
2019-05-21T03:19:54.683Z,7.50
2019-05-21T03:22:24.023Z,8.33
2019-05-21T03:24:53.501Z,9.90
2019-05-21T03:27:22.920Z,9.50
2019-05-21T03:29:52.335Z,11.57
2019-05-21T03:32:23.565Z,12.58
2019-05-21T03:34:52.990Z,12.88
2019-05-21T03:37:23.440Z,12.63
2019-05-21T03:39:52.830Z,13.22
2019-05-21T03:42:22.271Z,10.63
2019-05-21T03:44:59.850Z,9.40
2019-05-21T03:47:22.825Z,10.05
2019-05-21T03:49:53.024Z,12.28
2019-05-21T03:52:24.151Z,10.83
2019-05-21T03:54:54.195Z,9.70
2019-05-21T03:57:23.889Z,9.93
2019-05-21T03:59:53.293Z,11.73
2019-05-21T04:02:22.751Z,10.20
2019-05-21T04:04:52.189Z,11.63
2019-05-21T04:07:21.633Z,17.77
2019-05-21T04:09:51.066Z,14.10
2019-05-21T04:12:20.428Z,13.43
2019-05-21T04:14:55.119Z,17.27
2019-05-21T04:17:34.698Z,13.88
2019-05-21T04:20:04.505Z,15.53
2019-05-21T04:22:33.991Z,11.83
2019-05-21T04:25:04.028Z,11.53
2019-05-21T04:27:33.503Z,13.30
2019-05-21T04:30:03.193Z,9.00
2019-05-21T04:32:33.748Z,7.75
2019-05-21T04:35:03.527Z,7.20
2019-05-21T04:37:32.958Z,8.35
2019-05-21T04:40:02.472Z,11.73
2019-05-21T04:42:32.071Z,13.50
2019-05-21T04:45:01.496Z,13.22
2019-05-21T04:47:30.934Z,12.70
2019-05-21T04:50:00.435Z,12.03
2019-05-21T04:52:29.882Z,15.30
2019-05-21T04:55:02.107Z,13.65
2019-05-21T04:57:31.552Z,15.03
2019-05-21T05:00:00.902Z,14.75
2019-05-21T05:02:30.349Z,14.18
2019-05-21T05:04:59.708Z,12.15
2019-05-21T05:07:29.150Z,12.23
2019-05-21T05:09:58.570Z,14.00
2019-05-21T05:12:28.808Z,12.47
2019-05-21T05:14:58.254Z,11.78
2019-05-21T05:17:30.397Z,18.87
2019-05-21T05:19:59.934Z,10.28
2019-05-21T05:22:29.436Z,14.33
2019-05-21T05:24:59.969Z,11.80
2019-05-21T05:27:29.343Z,10.72
2019-05-21T05:29:58.837Z,12.07
2019-05-21T05:32:30.857Z,10.93
2019-05-21T05:35:00.328Z,11.80
2019-05-21T05:37:42.845Z,13.35
2019-05-21T05:40:00.891Z,14.70
2019-05-21T05:42:30.404Z,17.57
2019-05-21T05:45:00.011Z,15.85
2019-05-21T05:47:29.371Z,13.35
2019-05-21T05:50:01.437Z,12.63
2019-05-21T05:52:30.921Z,15.23
2019-05-21T05:55:00.267Z,12.75
2019-05-21T05:57:29.705Z,14.00
2019-05-21T05:59:59.125Z,13.45
2019-05-21T06:02:28.463Z,17.02
2019-05-21T06:04:57.865Z,13.08
2019-05-21T06:07:27.299Z,17.87
2019-05-21T06:09:56.660Z,16.52
2019-05-21T06:12:27.230Z,16.17
2019-05-21T06:14:56.656Z,19.30
2019-05-21T06:17:29.448Z,20.48
2019-05-21T06:19:58.917Z,14.33
2019-05-21T06:22:28.352Z,16.87
2019-05-21T06:24:57.760Z,12.25
2019-05-21T06:27:34.855Z,15.03
2019-05-21T06:29:59.683Z,16.82
2019-05-21T06:32:30.722Z,14.73
2019-05-21T06:35:00.124Z,17.40
2019-05-21T06:37:29.557Z,17.50
2019-05-21T06:39:59.143Z,13.40
2019-05-21T06:42:28.575Z,18.25
2019-05-21T06:44:57.941Z,16.32
2019-05-21T06:47:27.347Z,14.53
2019-05-21T06:49:56.752Z,22.10
2019-05-21T06:52:26.117Z,15.13
2019-05-21T06:54:55.607Z,19.52
2019-05-21T06:57:25.147Z,18.30
2019-05-21T06:59:54.580Z,18.37
2019-05-21T07:02:24.022Z,14.75
2019-05-21T07:04:53.534Z,16.65
2019-05-21T07:07:22.973Z,15.63
2019-05-21T07:09:52.435Z,18.90
2019-05-21T07:12:21.928Z,14.03
2019-05-21T07:14:51.398Z,18.75
2019-05-21T07:17:20.773Z,17.90
2019-05-21T07:19:50.131Z,14.73
2019-05-21T07:22:22.630Z,15.28
2019-05-21T07:24:52.076Z,17.92
2019-05-21T07:27:24.200Z,17.00
2019-05-21T07:29:55.299Z,14.63
2019-05-21T07:32:24.701Z,11.47
2019-05-21T07:34:54.233Z,12.60
2019-05-21T07:37:23.751Z,9.23
2019-05-21T07:39:53.250Z,11.83
2019-05-21T07:42:22.684Z,13.57
2019-05-21T07:44:52.201Z,23.05
2019-05-21T07:47:21.629Z,15.58
2019-05-21T07:49:51.007Z,17.80
2019-05-21T07:52:20.419Z,17.60
2019-05-21T07:54:49.806Z,12.58
2019-05-21T07:57:19.167Z,11.43
2019-05-21T07:59:48.532Z,14.70
2019-05-21T08:02:17.939Z,12.10
2019-05-21T08:04:47.363Z,10.78
2019-05-21T08:07:16.899Z,12.75
2019-05-21T08:09:46.327Z,15.70
2019-05-21T08:12:35.380Z,13.30
2019-05-21T08:14:46.835Z,19.07
2019-05-21T08:17:16.310Z,11.97
2019-05-21T08:19:47.767Z,15.60
2019-05-21T08:22:16.955Z,15.20
2019-05-21T08:24:49.020Z,13.05
2019-05-21T08:27:18.558Z,13.53
2019-05-21T08:29:49.560Z,15.40
2019-05-21T08:32:19.032Z,13.18
2019-05-21T08:34:48.451Z,14.73
2019-05-21T08:37:17.829Z,9.05
2019-05-21T08:39:50.106Z,13.72
2019-05-21T08:42:22.214Z,9.70
2019-05-21T08:44:51.679Z,9.08
2019-05-21T08:47:21.107Z,9.53
2019-05-21T08:49:50.536Z,8.38
2019-05-21T08:52:21.159Z,8.70
2019-05-21T08:54:51.225Z,8.93
2019-05-21T08:57:20.764Z,9.90
2019-05-21T08:59:50.218Z,9.30
2019-05-21T09:02:21.001Z,9.00
2019-05-21T09:04:50.474Z,14.43
2019-05-21T09:07:19.867Z,11.63
2019-05-21T09:09:51.559Z,9.95
2019-05-21T09:12:20.407Z,13.90
2019-05-21T09:14:49.947Z,11.03
2019-05-21T09:17:19.473Z,10.88
2019-05-21T09:19:48.916Z,9.33
2019-05-21T09:22:18.349Z,7.92
2019-05-21T09:24:47.712Z,9.65
2019-05-21T09:27:17.168Z,12.00
2019-05-21T09:29:46.587Z,6.67
2019-05-21T09:32:15.972Z,13.80
2019-05-21T09:34:49.273Z,10.68
2019-05-21T09:37:20.109Z,10.60
2019-05-21T09:39:49.119Z,13.20
2019-05-21T09:42:20.276Z,11.53
2019-05-21T09:44:50.849Z,10.32
2019-05-21T09:47:24.427Z,7.22
2019-05-21T09:49:54.676Z,7.45
2019-05-21T09:52:25.278Z,9.03
2019-05-21T09:54:54.751Z,15.05
2019-05-21T09:57:28.514Z,12.20
2019-05-21T10:00:05.365Z,11.40
2019-05-21T10:02:35.971Z,13.72
2019-05-21T10:05:06.352Z,9.70
2019-05-21T10:07:39.737Z,5.70
2019-05-21T10:10:08.768Z,6.93
2019-05-21T10:12:39.779Z,7.15
2019-05-21T10:15:09.339Z,8.80
2019-05-21T10:17:38.696Z,7.42
2019-05-21T10:20:08.297Z,7.50
2019-05-21T10:22:37.748Z,9.35
2019-05-21T10:25:07.551Z,6.28
2019-05-21T10:27:38.748Z,6.85
2019-05-21T10:30:08.730Z,6.70
2019-05-21T10:32:40.580Z,11.53
2019-05-21T10:35:09.482Z,4.67
2019-05-21T10:37:53.746Z,5.70
2019-05-21T10:40:10.645Z,2.67
2019-05-21T10:42:41.832Z,5.03
2019-05-21T10:45:11.755Z,4.10
2019-05-21T10:47:42.260Z,4.12
2019-05-21T10:50:11.950Z,4.63
2019-05-21T10:52:42.942Z,4.78
2019-05-21T10:57:44.512Z,3.87
2019-05-21T11:00:23.352Z,4.55
2019-05-21T11:03:00.215Z,6.47
2019-05-21T11:05:33.841Z,3.47
2019-05-21T11:08:22.803Z,4.05
2019-05-21T11:10:37.481Z,2.58
2019-05-21T11:13:07.272Z,4.65
2019-05-21T11:15:38.430Z,4.75
2019-05-21T11:18:11.239Z,5.67
2019-05-21T11:20:39.070Z,4.87
2019-05-21T11:23:08.582Z,4.10
2019-05-21T11:25:37.995Z,4.37
2019-05-21T11:28:07.384Z,4.30
2019-05-21T11:30:38.433Z,3.20
2019-05-21T11:33:07.800Z,3.80
2019-05-21T11:35:37.200Z,3.25
2019-05-21T11:38:06.701Z,2.92
2019-05-21T11:40:36.389Z,3.77
2019-05-21T11:43:05.840Z,3.80
2019-05-21T11:45:35.431Z,4.08
2019-05-21T11:48:07.854Z,4.67
2019-05-21T11:50:38.887Z,5.12
2019-05-21T11:53:08.332Z,2.85
2019-05-21T11:55:37.759Z,5.50
2019-05-21T11:58:07.117Z,1.55
2019-05-21T12:00:36.798Z,4.17
2019-05-21T12:03:06.323Z,2.87
2019-05-21T12:05:35.784Z,3.45
2019-05-21T12:08:05.716Z,2.82
2019-05-21T12:10:35.138Z,3.47
2019-05-21T12:13:05.368Z,2.36
2019-05-21T12:15:34.849Z,3.77
2019-05-21T12:18:04.360Z,2.95
2019-05-21T12:20:37.182Z,4.47
2019-05-21T12:23:05.747Z,4.65
2019-05-21T12:25:35.272Z,3.62
2019-05-21T12:28:05.693Z,3.65
2019-05-21T12:30:35.257Z,3.13
2019-05-21T12:33:04.818Z,3.98
2019-05-21T12:35:34.335Z,3.80
2019-05-21T12:38:03.883Z,2.92
2019-05-21T12:40:33.331Z,3.70
2019-05-21T12:43:03.793Z,2.15
2019-05-21T12:45:33.299Z,5.03
2019-05-21T12:48:02.659Z,2.52
2019-05-21T12:50:34.950Z,7.17
2019-05-21T12:53:04.470Z,9.60
2019-05-21T12:55:34.088Z,2.37
2019-05-21T12:58:06.920Z,5.97
2019-05-21T13:00:37.232Z,3.55
2019-05-21T13:03:06.595Z,5.80
2019-05-21T13:05:35.968Z,5.53
2019-05-21T13:08:05.846Z,3.15
2019-05-21T13:10:35.435Z,2.95
2019-05-21T13:13:05.934Z,3.98
2019-05-21T13:15:35.375Z,3.20
2019-05-21T13:18:05.403Z,2.20
2019-05-21T13:20:34.900Z,2.70
2019-05-21T13:23:04.673Z,5.25
2019-05-21T13:25:35.405Z,6.70
2019-05-21T13:28:05.675Z,6.17
2019-05-21T13:30:35.152Z,2.10
2019-05-21T13:33:06.158Z,2.58
2019-05-21T13:38:05.164Z,3.67
2019-05-21T13:40:34.604Z,4.78
2019-05-21T13:43:04.422Z,3.50
2019-05-21T13:45:34.861Z,2.50
2019-05-21T13:48:06.773Z,4.87
2019-05-21T13:50:36.216Z,4.97
2019-05-21T13:53:06.125Z,4.60
2019-05-21T13:55:35.659Z,3.33
2019-05-21T13:58:08.024Z,7.55
2019-05-21T14:00:41.656Z,4.28
2019-05-21T14:03:13.920Z,2.03
2019-05-21T14:05:43.373Z,9.70
2019-05-21T14:08:12.784Z,3.43
2019-05-21T14:10:42.180Z,4.70
2019-05-21T14:13:11.838Z,7.00
2019-05-21T14:15:41.481Z,8.30
2019-05-21T14:18:11.116Z,4.22
2019-05-21T14:20:40.660Z,6.92
2019-05-21T14:23:11.717Z,5.30
2019-05-21T14:28:11.272Z,3.35
2019-05-21T14:30:41.263Z,4.72
2019-05-21T14:33:10.792Z,4.56
2019-05-21T14:35:41.612Z,4.53
2019-05-21T14:38:10.963Z,4.80
2019-05-21T14:40:40.424Z,2.75
2019-05-21T14:43:11.672Z,3.58
2019-05-21T14:48:11.293Z,5.78
2019-05-21T14:50:42.300Z,4.05
2019-05-21T14:53:11.725Z,8.38
2019-05-21T14:55:41.186Z,4.62
2019-05-21T14:58:16.139Z,2.90
2019-05-21T15:00:45.911Z,8.70
2019-05-21T15:03:24.818Z,2.07
2019-05-21T15:05:49.097Z,3.70
2019-05-21T15:08:18.523Z,4.50
2019-05-21T15:10:49.569Z,3.55
2019-05-21T15:13:19.268Z,2.17
2019-05-21T15:15:50.153Z,3.02
2019-05-21T15:18:22.150Z,4.00
2019-05-21T15:20:52.482Z,4.70
2019-05-21T15:23:21.984Z,5.42
2019-05-21T15:25:53.048Z,6.78
2019-05-21T15:28:22.542Z,5.25
2019-05-21T15:30:51.968Z,3.67
2019-05-21T15:33:21.421Z,5.75
2019-05-21T15:35:53.574Z,5.78
2019-05-21T15:38:23.032Z,5.78
2019-05-21T15:41:08.406Z,4.75
2019-05-21T15:43:26.669Z,6.65
2019-05-21T15:45:56.030Z,5.23
2019-05-21T15:48:26.807Z,4.15
2019-05-21T15:53:26.735Z,8.20
2019-05-21T15:58:26.899Z,6.85
2019-05-21T16:00:57.560Z,5.25
2019-05-21T16:03:27.055Z,5.78
2019-05-21T16:05:56.593Z,10.48
2019-05-21T16:08:27.185Z,5.00
2019-05-21T16:10:56.719Z,6.65
2019-05-21T16:13:26.258Z,4.53
2019-05-21T16:15:57.246Z,5.33
2019-05-21T16:18:26.717Z,6.17
2019-05-21T16:20:56.129Z,4.78
2019-05-21T16:23:25.526Z,6.37
2019-05-21T16:25:55.237Z,6.62
2019-05-21T16:28:24.680Z,5.95
2019-05-21T16:30:54.138Z,4.67
2019-05-21T16:33:23.638Z,7.47
2019-05-21T16:35:53.107Z,12.40
2019-05-21T16:38:23.448Z,6.53
2019-05-21T16:40:52.910Z,6.45
2019-05-21T16:43:22.432Z,7.08
2019-05-21T16:45:53.489Z,4.83
2019-05-21T16:48:22.928Z,5.55
2019-05-21T16:50:52.336Z,4.20
2019-05-21T16:53:21.705Z,9.17
2019-05-21T16:55:51.088Z,9.08
2019-05-21T16:58:20.549Z,7.22
2019-05-21T17:00:49.916Z,6.17
2019-05-21T17:03:19.268Z,9.90
2019-05-21T17:05:48.717Z,7.83
2019-05-21T17:08:18.080Z,8.53
2019-05-21T17:10:49.113Z,8.05
2019-05-21T17:13:18.492Z,7.53
2019-05-21T17:15:47.867Z,7.83
2019-05-21T17:18:17.249Z,7.95
2019-05-21T17:20:46.690Z,8.65
2019-05-21T17:23:16.142Z,11.27
2019-05-21T17:25:46.688Z,7.20
2019-05-21T17:28:16.127Z,5.40
2019-05-21T17:30:45.911Z,8.20
2019-05-21T17:33:17.020Z,7.80
2019-05-21T17:35:46.437Z,6.93
2019-05-21T17:38:15.874Z,7.80
2019-05-21T17:40:45.428Z,6.15
2019-05-21T17:43:14.922Z,4.87
2019-05-21T17:45:44.446Z,7.72
2019-05-21T17:48:13.964Z,8.17
2019-05-21T17:50:43.496Z,6.53
2019-05-21T17:53:13.010Z,4.53
2019-05-21T17:55:43.764Z,8.43
2019-05-21T17:58:13.267Z,4.47
2019-05-21T18:00:45.430Z,5.37
2019-05-21T18:03:17.765Z,6.47
2019-05-21T18:05:48.710Z,11.45
2019-05-21T18:08:18.819Z,5.13
2019-05-21T18:10:48.732Z,8.90
2019-05-21T18:13:19.346Z,7.22
2019-05-21T18:15:49.666Z,4.47
2019-05-21T18:18:22.020Z,5.33
2019-05-21T18:20:51.448Z,7.05
2019-05-21T18:23:21.209Z,9.45
2019-05-21T18:25:53.840Z,4.20
2019-05-21T18:28:23.340Z,9.07
2019-05-21T18:30:53.217Z,6.90
2019-05-21T18:33:22.963Z,9.40
2019-05-21T18:35:52.634Z,7.53
2019-05-21T18:38:22.213Z,7.97
2019-05-21T18:40:51.765Z,5.17
2019-05-21T18:43:21.242Z,4.23
2019-05-21T18:45:53.469Z,9.63
2019-05-21T18:48:24.151Z,5.15
2019-05-21T18:50:56.394Z,6.78
2019-05-21T18:53:25.998Z,6.65
2019-05-21T18:55:55.539Z,6.05
2019-05-21T18:58:28.149Z,6.53
2019-05-21T19:00:57.563Z,7.53
2019-05-21T19:03:27.184Z,7.08
2019-05-21T19:05:56.686Z,5.30
2019-05-21T19:08:26.222Z,9.05
2019-05-21T19:10:55.634Z,4.62
2019-05-21T19:13:27.918Z,4.12
2019-05-21T19:15:59.065Z,4.55
2019-05-21T19:18:28.532Z,5.20
2019-05-21T19:20:57.983Z,5.53
2019-05-21T19:23:27.501Z,6.60
2019-05-21T19:26:00.018Z,3.85
2019-05-21T19:28:29.554Z,3.55
2019-05-21T19:30:58.978Z,5.53
2019-05-21T19:33:28.404Z,4.45
2019-05-21T19:35:57.812Z,5.45
2019-05-21T19:38:27.361Z,4.00
2019-05-21T19:40:56.918Z,3.98
2019-05-21T19:43:26.292Z,8.38
2019-05-21T19:45:55.709Z,7.45
2019-05-21T19:48:25.151Z,9.70
2019-05-21T19:51:00.125Z,5.63
2019-05-21T19:53:27.767Z,8.40
2019-05-21T19:55:57.159Z,3.92
2019-05-21T19:58:26.667Z,3.58
2019-05-21T20:00:56.236Z,7.08
2019-05-21T20:03:28.948Z,3.53
2019-05-21T20:05:58.661Z,3.83
2019-05-21T20:08:31.736Z,3.40
2019-05-21T20:11:01.338Z,3.40
2019-05-21T20:13:32.936Z,10.05
2019-05-21T20:16:03.059Z,10.25
2019-05-21T20:18:35.110Z,5.13
2019-05-21T20:21:06.207Z,5.47
2019-05-21T20:23:38.741Z,7.45
2019-05-21T20:26:13.098Z,5.15
2019-05-21T20:28:45.982Z,4.70
2019-05-21T20:31:16.685Z,7.58
2019-05-21T20:33:48.017Z,3.60
2019-05-21T20:36:18.341Z,4.20
2019-05-21T20:38:47.767Z,4.00
2019-05-21T20:41:17.827Z,5.37
2019-05-21T20:43:58.574Z,3.47
2019-05-21T20:46:18.710Z,3.22
2019-05-21T20:48:49.030Z,3.40
2019-05-21T20:51:19.113Z,3.00
2019-05-21T20:53:50.152Z,6.83
2019-05-21T20:56:19.583Z,3.20
2019-05-21T20:58:49.175Z,5.08
2019-05-21T21:01:19.048Z,10.13
2019-05-21T21:03:48.982Z,6.78
2019-05-21T21:06:34.445Z,4.22
2019-05-21T21:08:50.343Z,5.42
2019-05-21T21:11:23.109Z,4.97
2019-05-21T21:13:54.112Z,5.83
2019-05-21T21:16:26.241Z,5.47
2019-05-21T21:18:56.077Z,9.60
2019-05-21T21:21:26.078Z,6.33
2019-05-21T21:23:56.585Z,9.13
2019-05-21T21:26:26.961Z,15.57
2019-05-21T21:28:57.964Z,9.88
2019-05-21T21:31:27.338Z,11.85
2019-05-21T21:33:56.781Z,8.68
2019-05-21T21:36:26.691Z,10.63
2019-05-21T21:38:56.142Z,10.40
2019-05-21T21:41:27.889Z,6.42
2019-05-21T21:43:57.268Z,10.45
2019-05-21T21:46:26.637Z,11.88
2019-05-21T21:48:56.761Z,8.75
2019-05-21T21:51:26.187Z,8.70
2019-05-21T21:53:58.584Z,8.15
2019-05-21T21:56:27.955Z,9.45
2019-05-21T21:58:57.371Z,10.40
2019-05-21T22:01:34.055Z,8.80
2019-05-21T22:04:05.880Z,10.82
2019-05-21T22:06:37.711Z,7.92
2019-05-21T22:09:08.928Z,7.12
2019-05-21T22:11:38.666Z,12.00
2019-05-21T22:14:08.414Z,9.28
2019-05-21T22:16:37.880Z,10.85
2019-05-21T22:19:08.227Z,15.00
2019-05-21T22:21:39.307Z,11.18
2019-05-21T22:24:09.036Z,10.18
2019-05-21T22:26:38.828Z,13.13
2019-05-21T22:29:08.201Z,13.35
2019-05-21T22:31:37.746Z,13.80
2019-05-21T22:34:08.220Z,11.35
2019-05-21T22:36:37.581Z,7.67
2019-05-21T22:39:09.490Z,11.22
2019-05-21T22:41:38.872Z,11.15
2019-05-21T22:44:08.480Z,6.83
2019-05-21T22:46:37.853Z,10.35
2019-05-21T22:49:07.208Z,10.68
2019-05-21T22:51:36.635Z,10.25
2019-05-21T22:54:06.001Z,10.72
2019-05-21T22:56:35.416Z,11.53
2019-05-21T22:59:05.411Z,7.00
2019-05-21T23:01:35.949Z,9.78
2019-05-21T23:04:05.720Z,11.00
2019-05-21T23:06:36.114Z,15.32
2019-05-21T23:09:07.296Z,11.22
2019-05-21T23:11:36.832Z,9.00
2019-05-21T23:14:06.599Z,9.18
2019-05-21T23:16:37.823Z,9.93
2019-05-21T23:19:16.642Z,12.70
2019-05-21T23:21:49.567Z,8.00
2019-05-21T23:24:19.175Z,12.13
2019-05-21T23:26:49.384Z,11.63
2019-05-21T23:29:19.414Z,13.03
2019-05-21T23:31:49.019Z,8.38
2019-05-21T23:34:19.322Z,9.25
2019-05-21T23:36:49.107Z,8.08
2019-05-21T23:39:21.294Z,10.48
2019-05-21T23:41:51.272Z,7.42
2019-05-21T23:44:21.365Z,7.40
2019-05-21T23:46:53.540Z,8.30
2019-05-21T23:49:23.184Z,9.35
2019-05-21T23:51:54.941Z,11.88
2019-05-21T23:54:24.388Z,12.03
2019-05-21T23:56:55.474Z,13.40
2019-05-21T23:59:25.207Z,9.70
